sensor_id;sensor_type;location;lat;lon;timestamp;pressure;altitude;pressure_sealevel;temperature;humidity
53041;BME280;39326;42.650;23.248;2023-04-25T00:02:21;91809.50;;;8.95;85.60
53041;BME280;39326;42.650;23.248;2023-04-25T00:04:47;91810.63;;;8.94;85.88
53041;BME280;39326;42.650;23.248;2023-04-25T00:07:14;91803.78;;;8.96;84.94
53041;BME280;39326;42.650;23.248;2023-04-25T00:09:40;91790.13;;;8.94;85.10
53041;BME280;39326;42.650;23.248;2023-04-25T00:12:06;91774.59;;;8.86;84.19
53041;BME280;39326;42.650;23.248;2023-04-25T00:14:31;91771.94;;;8.89;83.42
53041;BME280;39326;42.650;23.248;2023-04-25T00:16:58;91760.16;;;8.90;83.98
53041;BME280;39326;42.650;23.248;2023-04-25T00:19:24;91765.06;;;8.92;83.21
53041;BME280;39326;42.650;23.248;2023-04-25T00:21:49;91774.94;;;8.91;83.53
53041;BME280;39326;42.650;23.248;2023-04-25T00:24:15;91769.28;;;8.89;83.47
53041;BME280;39326;42.650;23.248;2023-04-25T00:26:40;91783.63;;;8.99;83.95
53041;BME280;39326;42.650;23.248;2023-04-25T00:29:06;91785.19;;;8.96;84.30
53041;BME280;39326;42.650;23.248;2023-04-25T00:31:31;91774.53;;;8.96;84.37
53041;BME280;39326;42.650;23.248;2023-04-25T00:33:57;91773.91;;;8.78;86.39
53041;BME280;39326;42.650;23.248;2023-04-25T00:36:22;91764.25;;;8.98;84.75
53041;BME280;39326;42.650;23.248;2023-04-25T00:38:47;91770.84;;;8.80;86.96
53041;BME280;39326;42.650;23.248;2023-04-25T00:41:13;91768.22;;;8.76;87.73
53041;BME280;39326;42.650;23.248;2023-04-25T00:43:39;91769.31;;;8.82;86.41
53041;BME280;39326;42.650;23.248;2023-04-25T00:46:05;91773.53;;;8.76;86.65
53041;BME280;39326;42.650;23.248;2023-04-25T00:48:30;91767.78;;;8.81;86.80
53041;BME280;39326;42.650;23.248;2023-04-25T00:50:58;91763.69;;;8.69;87.97
53041;BME280;39326;42.650;23.248;2023-04-25T00:53:26;91767.50;;;8.68;88.14
53041;BME280;39326;42.650;23.248;2023-04-25T00:55:52;91762.94;;;8.69;86.22
53041;BME280;39326;42.650;23.248;2023-04-25T00:58:19;91768.88;;;8.87;83.75
53041;BME280;39326;42.650;23.248;2023-04-25T01:00:46;91762.34;;;8.99;84.92
53041;BME280;39326;42.650;23.248;2023-04-25T01:03:13;91755.16;;;8.96;84.36
53041;BME280;39326;42.650;23.248;2023-04-25T01:05:40;91740.69;;;9.00;85.12
53041;BME280;39326;42.650;23.248;2023-04-25T01:08:06;91731.19;;;8.99;84.71
53041;BME280;39326;42.650;23.248;2023-04-25T01:10:32;91732.69;;;9.00;85.91
53041;BME280;39326;42.650;23.248;2023-04-25T01:12:57;91743.38;;;8.97;86.68
53041;BME280;39326;42.650;23.248;2023-04-25T01:15:23;91739.16;;;8.99;86.61
53041;BME280;39326;42.650;23.248;2023-04-25T01:17:49;91752.22;;;8.83;87.90
53041;BME280;39326;42.650;23.248;2023-04-25T01:20:15;91752.41;;;8.55;89.79
53041;BME280;39326;42.650;23.248;2023-04-25T01:22:42;91750.78;;;8.71;88.72
53041;BME280;39326;42.650;23.248;2023-04-25T01:25:08;91737.16;;;8.62;88.69
53041;BME280;39326;42.650;23.248;2023-04-25T01:27:33;91753.72;;;8.84;87.42
53041;BME280;39326;42.650;23.248;2023-04-25T01:30:00;91748.81;;;8.79;87.74
53041;BME280;39326;42.650;23.248;2023-04-25T01:32:26;91751.41;;;8.90;86.36
53041;BME280;39326;42.650;23.248;2023-04-25T01:34:52;91742.41;;;8.77;87.05
53041;BME280;39326;42.650;23.248;2023-04-25T01:37:17;91754.94;;;8.76;87.57
53041;BME280;39326;42.650;23.248;2023-04-25T01:39:43;91739.41;;;8.71;87.53
53041;BME280;39326;42.650;23.248;2023-04-25T01:42:09;91748.47;;;8.73;86.76
53041;BME280;39326;42.650;23.248;2023-04-25T01:44:35;91756.16;;;8.64;87.62
53041;BME280;39326;42.650;23.248;2023-04-25T01:47:00;91749.69;;;8.65;87.69
53041;BME280;39326;42.650;23.248;2023-04-25T01:49:26;91755.41;;;8.64;87.77
53041;BME280;39326;42.650;23.248;2023-04-25T01:51:51;91755.41;;;8.64;87.85
53041;BME280;39326;42.650;23.248;2023-04-25T01:54:18;91757.72;;;8.55;88.91
53041;BME280;39326;42.650;23.248;2023-04-25T01:56:43;91750.84;;;8.61;88.23
53041;BME280;39326;42.650;23.248;2023-04-25T01:59:09;91749.34;;;8.60;88.93
53041;BME280;39326;42.650;23.248;2023-04-25T02:01:34;91752.00;;;8.56;89.80
53041;BME280;39326;42.650;23.248;2023-04-25T02:04:00;91752.00;;;8.56;89.41
53041;BME280;39326;42.650;23.248;2023-04-25T02:06:26;91752.38;;;8.58;89.86
53041;BME280;39326;42.650;23.248;2023-04-25T02:08:51;91743.63;;;8.61;88.80
53041;BME280;39326;42.650;23.248;2023-04-25T02:11:16;91737.91;;;8.66;88.96
53041;BME280;39326;42.650;23.248;2023-04-25T02:13:42;91727.69;;;8.61;88.71
53041;BME280;39326;42.650;23.248;2023-04-25T02:16:07;91724.25;;;8.64;89.09
53041;BME280;39326;42.650;23.248;2023-04-25T02:18:33;91727.63;;;8.68;88.32
53041;BME280;39326;42.650;23.248;2023-04-25T02:20:59;91728.38;;;8.69;88.35
53041;BME280;39326;42.650;23.248;2023-04-25T02:23:25;91713.97;;;8.70;87.88
53041;BME280;39326;42.650;23.248;2023-04-25T02:25:50;91730.78;;;8.53;88.66
53041;BME280;39326;42.650;23.248;2023-04-25T02:28:16;91726.97;;;8.57;88.93
53041;BME280;39326;42.650;23.248;2023-04-25T02:30:41;91720.84;;;8.60;88.35
53041;BME280;39326;42.650;23.248;2023-04-25T02:33:07;91709.81;;;8.62;87.79
53041;BME280;39326;42.650;23.248;2023-04-25T02:35:32;91717.50;;;8.53;88.30
53041;BME280;39326;42.650;23.248;2023-04-25T02:37:58;91711.03;;;8.50;88.09
53041;BME280;39326;42.650;23.248;2023-04-25T02:40:23;91706.88;;;8.49;88.35
53041;BME280;39326;42.650;23.248;2023-04-25T02:42:48;91712.59;;;8.40;88.53
53041;BME280;39326;42.650;23.248;2023-04-25T02:45:15;91708.09;;;8.34;88.24
53041;BME280;39326;42.650;23.248;2023-04-25T02:47:40;91692.91;;;8.34;88.78
53041;BME280;39326;42.650;23.248;2023-04-25T02:50:06;91677.03;;;8.27;88.83
53041;BME280;39326;42.650;23.248;2023-04-25T02:52:32;91686.94;;;8.19;89.63
53041;BME280;39326;42.650;23.248;2023-04-25T02:54:57;91685.41;;;8.22;88.94
53041;BME280;39326;42.650;23.248;2023-04-25T02:57:23;91684.38;;;8.02;89.58
53041;BME280;39326;42.650;23.248;2023-04-25T02:59:48;91680.22;;;7.93;90.67
53041;BME280;39326;42.650;23.248;2023-04-25T03:02:14;91682.81;;;8.08;90.49
53041;BME280;39326;42.650;23.248;2023-04-25T03:04:39;91663.78;;;8.20;89.76
53041;BME280;39326;42.650;23.248;2023-04-25T03:07:05;91677.72;;;8.38;88.91
53041;BME280;39326;42.650;23.248;2023-04-25T03:09:30;91670.06;;;8.51;87.75
53041;BME280;39326;42.650;23.248;2023-04-25T03:11:56;91675.53;;;8.78;87.16
53041;BME280;39326;42.650;23.248;2023-04-25T03:14:21;91674.31;;;8.86;86.85
53041;BME280;39326;42.650;23.248;2023-04-25T03:16:47;91670.44;;;8.94;86.02
53041;BME280;39326;42.650;23.248;2023-04-25T03:19:12;91681.41;;;9.00;85.36
53041;BME280;39326;42.650;23.248;2023-04-25T03:21:38;91675.34;;;8.99;85.47
53041;BME280;39326;42.650;23.248;2023-04-25T03:24:04;91678.06;;;8.96;86.20
53041;BME280;39326;42.650;23.248;2023-04-25T03:26:30;91676.78;;;9.11;85.70
53041;BME280;39326;42.650;23.248;2023-04-25T03:28:56;91663.78;;;9.20;84.77
53041;BME280;39326;42.650;23.248;2023-04-25T03:31:21;91679.69;;;9.24;83.82
53041;BME280;39326;42.650;23.248;2023-04-25T03:33:47;91674.69;;;9.30;83.02
53041;BME280;39326;42.650;23.248;2023-04-25T03:36:13;91669.28;;;9.40;82.62
53041;BME280;39326;42.650;23.248;2023-04-25T03:38:38;91664.28;;;9.42;81.88
53041;BME280;39326;42.650;23.248;2023-04-25T03:41:03;91673.38;;;9.45;81.55
53041;BME280;39326;42.650;23.248;2023-04-25T03:43:29;91662.31;;;9.50;80.95
53041;BME280;39326;42.650;23.248;2023-04-25T03:45:54;91655.00;;;9.58;80.75
53041;BME280;39326;42.650;23.248;2023-04-25T03:48:20;91656.56;;;9.55;80.86
53041;BME280;39326;42.650;23.248;2023-04-25T03:50:47;91644.81;;;9.52;81.19
53041;BME280;39326;42.650;23.248;2023-04-25T03:53:13;91654.56;;;9.63;79.80
53041;BME280;39326;42.650;23.248;2023-04-25T03:55:38;91658.25;;;9.72;78.96
53041;BME280;39326;42.650;23.248;2023-04-25T03:58:04;91658.59;;;9.74;79.31
53041;BME280;39326;42.650;23.248;2023-04-25T04:00:30;91659.72;;;9.77;79.15
53041;BME280;39326;42.650;23.248;2023-04-25T04:02:55;91676.50;;;9.74;79.55
53041;BME280;39326;42.650;23.248;2023-04-25T04:05:21;91684.44;;;9.77;79.14
53041;BME280;39326;42.650;23.248;2023-04-25T04:07:47;91687.13;;;9.77;78.72
53041;BME280;39326;42.650;23.248;2023-04-25T04:10:12;91688.22;;;9.80;79.03
53041;BME280;39326;42.650;23.248;2023-04-25T04:12:38;91690.88;;;9.80;80.67
53041;BME280;39326;42.650;23.248;2023-04-25T04:15:04;91681.78;;;9.77;80.62
53041;BME280;39326;42.650;23.248;2023-04-25T04:17:31;91674.91;;;9.80;80.31
53041;BME280;39326;42.650;23.248;2023-04-25T04:19:57;91680.53;;;9.86;78.97
53041;BME280;39326;42.650;23.248;2023-04-25T04:22:23;91681.13;;;10.00;76.89
53041;BME280;39326;42.650;23.248;2023-04-25T04:24:49;91681.94;;;9.97;76.89
53041;BME280;39326;42.650;23.248;2023-04-25T04:27:18;91683.22;;;9.86;77.35
53041;BME280;39326;42.650;23.248;2023-04-25T04:29:45;91683.84;;;9.97;76.43
53041;BME280;39326;42.650;23.248;2023-04-25T04:32:11;91687.59;;;10.03;76.20
53041;BME280;39326;42.650;23.248;2023-04-25T04:34:37;91677.00;;;9.96;76.18
53041;BME280;39326;42.650;23.248;2023-04-25T04:37:04;91673.53;;;10.02;76.40
53041;BME280;39326;42.650;23.248;2023-04-25T04:39:32;91667.03;;;10.00;76.11
53041;BME280;39326;42.650;23.248;2023-04-25T04:41:58;91673.88;;;10.04;73.70
53041;BME280;39326;42.650;23.248;2023-04-25T04:44:24;91670.03;;;10.05;73.11
53041;BME280;39326;42.650;23.248;2023-04-25T04:46:50;91677.53;;;10.14;71.09
53041;BME280;39326;42.650;23.248;2023-04-25T04:49:15;91669.25;;;10.08;71.75
53041;BME280;39326;42.650;23.248;2023-04-25T04:51:41;91674.50;;;10.16;71.75
53041;BME280;39326;42.650;23.248;2023-04-25T04:54:09;91676.09;;;10.10;73.34
53041;BME280;39326;42.650;23.248;2023-04-25T04:56:35;91698.16;;;10.10;73.96
53041;BME280;39326;42.650;23.248;2023-04-25T04:59:00;91690.16;;;10.10;73.45
53041;BME280;39326;42.650;23.248;2023-04-25T05:01:28;91696.75;;;10.02;72.39
53041;BME280;39326;42.650;23.248;2023-04-25T05:03:54;91706.91;;;10.11;72.99
53041;BME280;39326;42.650;23.248;2023-04-25T05:06:25;91705.25;;;10.20;72.57
53041;BME280;39326;42.650;23.248;2023-04-25T05:08:51;91713.31;;;10.13;72.80
53041;BME280;39326;42.650;23.248;2023-04-25T05:11:18;91714.94;;;10.07;73.88
53041;BME280;39326;42.650;23.248;2023-04-25T05:13:43;91708.97;;;9.96;74.51
53041;BME280;39326;42.650;23.248;2023-04-25T05:16:09;91700.75;;;10.14;73.19
53041;BME280;39326;42.650;23.248;2023-04-25T05:18:35;91704.19;;;10.14;74.00
53041;BME280;39326;42.650;23.248;2023-04-25T05:21:01;91691.97;;;10.17;73.12
53041;BME280;39326;42.650;23.248;2023-04-25T05:23:26;91695.44;;;10.14;74.74
53041;BME280;39326;42.650;23.248;2023-04-25T05:25:53;91703.16;;;10.04;74.98
53041;BME280;39326;42.650;23.248;2023-04-25T05:28:18;91716.06;;;10.10;74.19
53041;BME280;39326;42.650;23.248;2023-04-25T05:30:44;91716.81;;;10.10;75.26
53041;BME280;39326;42.650;23.248;2023-04-25T05:33:09;91717.22;;;10.08;77.56
53041;BME280;39326;42.650;23.248;2023-04-25T05:35:35;91711.41;;;10.14;78.99
53041;BME280;39326;42.650;23.248;2023-04-25T05:38:00;91707.84;;;9.59;85.48
53041;BME280;39326;42.650;23.248;2023-04-25T05:40:26;91715.69;;;9.70;85.04
53041;BME280;39326;42.650;23.248;2023-04-25T05:42:51;91714.13;;;9.76;85.60
53041;BME280;39326;42.650;23.248;2023-04-25T05:45:16;91712.19;;;9.80;85.74
53041;BME280;39326;42.650;23.248;2023-04-25T05:47:42;91718.44;;;9.63;87.21
53041;BME280;39326;42.650;23.248;2023-04-25T05:50:08;91711.81;;;9.78;84.59
53041;BME280;39326;42.650;23.248;2023-04-25T05:52:33;91706.41;;;9.85;84.49
53041;BME280;39326;42.650;23.248;2023-04-25T05:54:59;91700.56;;;9.97;80.27
53041;BME280;39326;42.650;23.248;2023-04-25T05:57:26;91704.75;;;10.02;76.96
53041;BME280;39326;42.650;23.248;2023-04-25T05:59:52;91698.91;;;10.11;75.89
53041;BME280;39326;42.650;23.248;2023-04-25T06:02:19;91694.75;;;10.37;75.62
53041;BME280;39326;42.650;23.248;2023-04-25T06:04:46;91701.97;;;10.40;75.58
53041;BME280;39326;42.650;23.248;2023-04-25T06:07:11;91703.19;;;10.31;75.94
53041;BME280;39326;42.650;23.248;2023-04-25T06:09:37;91702.97;;;10.49;71.66
53041;BME280;39326;42.650;23.248;2023-04-25T06:12:04;91704.31;;;10.34;73.51
53041;BME280;39326;42.650;23.248;2023-04-25T06:14:30;91698.38;;;10.23;77.66
53041;BME280;39326;42.650;23.248;2023-04-25T06:16:55;91704.97;;;10.42;77.96
53041;BME280;39326;42.650;23.248;2023-04-25T06:19:21;91697.75;;;10.39;79.49
53041;BME280;39326;42.650;23.248;2023-04-25T06:21:46;91710.22;;;10.18;82.59
53041;BME280;39326;42.650;23.248;2023-04-25T06:24:12;91705.53;;;10.29;82.21
53041;BME280;39326;42.650;23.248;2023-04-25T06:26:37;91712.41;;;10.54;82.66
53041;BME280;39326;42.650;23.248;2023-04-25T06:29:03;91719.56;;;10.60;84.23
53041;BME280;39326;42.650;23.248;2023-04-25T06:31:28;91716.19;;;10.83;84.00
53041;BME280;39326;42.650;23.248;2023-04-25T06:33:59;91714.75;;;11.02;83.55
53041;BME280;39326;42.650;23.248;2023-04-25T06:36:25;91713.19;;;11.05;84.29
53041;BME280;39326;42.650;23.248;2023-04-25T06:38:52;91724.19;;;11.30;83.15
53041;BME280;39326;42.650;23.248;2023-04-25T06:41:18;91728.38;;;11.31;83.49
53041;BME280;39326;42.650;23.248;2023-04-25T06:43:44;91731.75;;;11.35;82.95
53041;BME280;39326;42.650;23.248;2023-04-25T06:46:09;91727.88;;;11.16;83.24
53041;BME280;39326;42.650;23.248;2023-04-25T06:48:35;91736.03;;;11.06;83.75
53041;BME280;39326;42.650;23.248;2023-04-25T06:51:00;91730.47;;;10.97;84.29
53041;BME280;39326;42.650;23.248;2023-04-25T06:53:26;91729.50;;;11.10;84.08
53041;BME280;39326;42.650;23.248;2023-04-25T06:55:51;91736.16;;;11.22;83.69
53041;BME280;39326;42.650;23.248;2023-04-25T06:58:17;91737.44;;;11.37;82.68
53041;BME280;39326;42.650;23.248;2023-04-25T07:00:43;91730.88;;;11.19;82.43
53041;BME280;39326;42.650;23.248;2023-04-25T07:03:08;91718.00;;;10.90;82.75
53041;BME280;39326;42.650;23.248;2023-04-25T07:05:33;91721.53;;;11.07;81.06
53041;BME280;39326;42.650;23.248;2023-04-25T07:07:59;91732.19;;;11.07;79.82
53041;BME280;39326;42.650;23.248;2023-04-25T07:10:25;91726.91;;;11.27;76.26
53041;BME280;39326;42.650;23.248;2023-04-25T07:12:50;91738.44;;;11.47;75.25
53041;BME280;39326;42.650;23.248;2023-04-25T07:15:16;91731.94;;;11.48;71.68
53041;BME280;39326;42.650;23.248;2023-04-25T07:17:41;91727.63;;;11.78;70.97
53041;BME280;39326;42.650;23.248;2023-04-25T07:20:07;91727.13;;;12.03;69.12
53041;BME280;39326;42.650;23.248;2023-04-25T07:22:34;91717.03;;;12.30;68.55
53041;BME280;39326;42.650;23.248;2023-04-25T07:25:00;91715.91;;;12.47;67.75
53041;BME280;39326;42.650;23.248;2023-04-25T07:27:25;91718.69;;;12.60;68.19
53041;BME280;39326;42.650;23.248;2023-04-25T07:29:51;91720.28;;;12.58;65.66
53041;BME280;39326;42.650;23.248;2023-04-25T07:32:16;91723.44;;;12.89;65.93
53041;BME280;39326;42.650;23.248;2023-04-25T07:34:41;91715.94;;;13.16;63.33
53041;BME280;39326;42.650;23.248;2023-04-25T07:37:07;91723.34;;;13.09;65.05
53041;BME280;39326;42.650;23.248;2023-04-25T07:39:32;91718.19;;;13.18;64.38
53041;BME280;39326;42.650;23.248;2023-04-25T07:41:58;91715.84;;;13.36;63.89
53041;BME280;39326;42.650;23.248;2023-04-25T07:44:24;91716.22;;;13.35;61.35
53041;BME280;39326;42.650;23.248;2023-04-25T07:46:51;91722.66;;;13.53;61.59
53041;BME280;39326;42.650;23.248;2023-04-25T07:49:16;91715.63;;;13.59;60.93
53041;BME280;39326;42.650;23.248;2023-04-25T07:51:41;91716.19;;;13.83;60.50
53041;BME280;39326;42.650;23.248;2023-04-25T07:54:13;91728.16;;;14.08;59.63
53041;BME280;39326;42.650;23.248;2023-04-25T07:56:38;91703.25;;;14.36;56.48
53041;BME280;39326;42.650;23.248;2023-04-25T07:59:04;91722.66;;;14.41;57.56
53041;BME280;39326;42.650;23.248;2023-04-25T08:01:30;91702.53;;;14.49;54.11
53041;BME280;39326;42.650;23.248;2023-04-25T08:03:56;91709.84;;;14.61;54.56
53041;BME280;39326;42.650;23.248;2023-04-25T08:06:21;91705.53;;;14.63;53.29
53041;BME280;39326;42.650;23.248;2023-04-25T08:08:46;91706.50;;;14.82;53.06
53041;BME280;39326;42.650;23.248;2023-04-25T08:11:12;91706.94;;;14.81;52.63
53041;BME280;39326;42.650;23.248;2023-04-25T08:13:37;91692.41;;;14.53;51.35
53041;BME280;39326;42.650;23.248;2023-04-25T08:16:03;91701.19;;;14.41;52.75
53041;BME280;39326;42.650;23.248;2023-04-25T08:18:28;91709.56;;;14.30;54.35
53041;BME280;39326;42.650;23.248;2023-04-25T08:20:54;91715.66;;;14.18;54.28
53041;BME280;39326;42.650;23.248;2023-04-25T08:23:19;91693.53;;;14.14;55.04
53041;BME280;39326;42.650;23.248;2023-04-25T08:25:44;91694.09;;;14.21;55.14
53041;BME280;39326;42.650;23.248;2023-04-25T08:28:10;91697.66;;;14.31;55.49
53041;BME280;39326;42.650;23.248;2023-04-25T08:30:36;91684.88;;;14.35;53.47
53041;BME280;39326;42.650;23.248;2023-04-25T08:33:02;91714.44;;;14.06;57.90
53041;BME280;39326;42.650;23.248;2023-04-25T08:35:27;91691.22;;;13.70;60.90
53041;BME280;39326;42.650;23.248;2023-04-25T08:37:53;91702.19;;;13.30;65.91
53041;BME280;39326;42.650;23.248;2023-04-25T08:40:19;91698.19;;;13.22;68.74
53041;BME280;39326;42.650;23.248;2023-04-25T08:42:52;91701.19;;;13.24;70.40
53041;BME280;39326;42.650;23.248;2023-04-25T08:45:19;91696.28;;;13.52;66.14
53041;BME280;39326;42.650;23.248;2023-04-25T08:47:45;91697.50;;;13.80;65.41
53041;BME280;39326;42.650;23.248;2023-04-25T08:50:10;91699.78;;;14.10;66.88
53041;BME280;39326;42.650;23.248;2023-04-25T08:52:39;91692.75;;;14.42;65.83
53041;BME280;39326;42.650;23.248;2023-04-25T08:55:09;91682.34;;;14.57;59.59
53041;BME280;39326;42.650;23.248;2023-04-25T08:57:35;91702.84;;;14.63;58.63
53041;BME280;39326;42.650;23.248;2023-04-25T09:00:01;91677.38;;;14.30;57.34
53041;BME280;39326;42.650;23.248;2023-04-25T09:02:28;91693.91;;;14.54;57.33
53041;BME280;39326;42.650;23.248;2023-04-25T09:04:54;91680.63;;;14.76;55.84
53041;BME280;39326;42.650;23.248;2023-04-25T09:07:21;91676.97;;;14.70;51.64
53041;BME280;39326;42.650;23.248;2023-04-25T09:09:47;91682.34;;;14.57;54.23
53041;BME280;39326;42.650;23.248;2023-04-25T09:12:13;91680.50;;;14.66;55.25
53041;BME280;39326;42.650;23.248;2023-04-25T09:14:38;91677.72;;;14.83;56.38
53041;BME280;39326;42.650;23.248;2023-04-25T09:17:04;91686.00;;;14.63;54.96
53041;BME280;39326;42.650;23.248;2023-04-25T09:19:37;91684.38;;;14.65;55.16
53041;BME280;39326;42.650;23.248;2023-04-25T09:22:05;91686.31;;;14.65;55.66
53041;BME280;39326;42.650;23.248;2023-04-25T09:24:38;91683.94;;;14.42;55.21
53041;BME280;39326;42.650;23.248;2023-04-25T09:27:05;91679.63;;;14.31;55.61
53041;BME280;39326;42.650;23.248;2023-04-25T09:29:36;91673.09;;;14.45;55.46
53041;BME280;39326;42.650;23.248;2023-04-25T09:34:51;91680.31;;;14.48;53.28
53041;BME280;39326;42.650;23.248;2023-04-25T09:37:21;91688.88;;;14.30;50.11
53041;BME280;39326;42.650;23.248;2023-04-25T09:39:49;91691.78;;;14.36;50.30
53041;BME280;39326;42.650;23.248;2023-04-25T09:42:15;91680.13;;;14.94;49.37
53041;BME280;39326;42.650;23.248;2023-04-25T09:44:43;91667.38;;;15.32;49.72
53041;BME280;39326;42.650;23.248;2023-04-25T09:47:11;91681.38;;;15.62;48.45
53041;BME280;39326;42.650;23.248;2023-04-25T09:49:39;91673.75;;;15.82;47.52
53041;BME280;39326;42.650;23.248;2023-04-25T09:52:06;91676.44;;;15.82;47.20
53041;BME280;39326;42.650;23.248;2023-04-25T09:54:31;91670.31;;;15.82;48.09
53041;BME280;39326;42.650;23.248;2023-04-25T09:56:58;91664.81;;;15.63;47.89
53041;BME280;39326;42.650;23.248;2023-04-25T09:59:30;91670.91;;;15.29;46.25
53041;BME280;39326;42.650;23.248;2023-04-25T10:01:57;91675.81;;;14.96;45.61
53041;BME280;39326;42.650;23.248;2023-04-25T10:04:24;91697.69;;;14.56;47.18
53041;BME280;39326;42.650;23.248;2023-04-25T10:06:53;91707.44;;;13.96;48.70
53041;BME280;39326;42.650;23.248;2023-04-25T10:09:20;91715.28;;;13.74;52.61
53041;BME280;39326;42.650;23.248;2023-04-25T10:11:48;91711.06;;;13.44;56.46
53041;BME280;39326;42.650;23.248;2023-04-25T10:14:14;91703.25;;;13.49;57.65
53041;BME280;39326;42.650;23.248;2023-04-25T10:16:40;91695.81;;;13.41;58.75
53041;BME280;39326;42.650;23.248;2023-04-25T10:19:07;91684.44;;;13.82;59.39
53041;BME280;39326;42.650;23.248;2023-04-25T10:21:33;91683.59;;;14.39;56.80
53041;BME280;39326;42.650;23.248;2023-04-25T10:23:59;91673.00;;;14.74;55.25
53041;BME280;39326;42.650;23.248;2023-04-25T10:26:25;91663.38;;;15.37;52.94
53041;BME280;39326;42.650;23.248;2023-04-25T10:29:02;91661.44;;;15.72;49.45
53041;BME280;39326;42.650;23.248;2023-04-25T10:31:29;91668.00;;;16.06;47.81
53041;BME280;39326;42.650;23.248;2023-04-25T10:33:55;91657.38;;;16.11;46.07
53041;BME280;39326;42.650;23.248;2023-04-25T10:36:23;91661.78;;;15.96;45.54
53041;BME280;39326;42.650;23.248;2023-04-25T10:38:50;91652.56;;;15.84;45.80
53041;BME280;39326;42.650;23.248;2023-04-25T10:41:18;91654.56;;;15.71;47.45
53041;BME280;39326;42.650;23.248;2023-04-25T10:43:47;91659.44;;;15.85;46.68
53041;BME280;39326;42.650;23.248;2023-04-25T10:46:23;91658.72;;;16.07;46.42
53041;BME280;39326;42.650;23.248;2023-04-25T10:48:53;91663.50;;;15.90;44.91
53041;BME280;39326;42.650;23.248;2023-04-25T10:51:21;91671.69;;;15.99;45.04
53041;BME280;39326;42.650;23.248;2023-04-25T10:54:00;91661.59;;;16.12;44.54
53041;BME280;39326;42.650;23.248;2023-04-25T11:01:38;91649.66;;;16.44;45.68
53041;BME280;39326;42.650;23.248;2023-04-25T11:04:04;91645.66;;;16.18;43.20
53041;BME280;39326;42.650;23.248;2023-04-25T11:09:28;91657.28;;;15.93;44.67
53041;BME280;39326;42.650;23.248;2023-04-25T11:11:58;91654.25;;;15.91;46.13
53041;BME280;39326;42.650;23.248;2023-04-25T11:14:25;91639.44;;;16.08;44.71
53041;BME280;39326;42.650;23.248;2023-04-25T11:16:55;91632.69;;;16.25;44.97
53041;BME280;39326;42.650;23.248;2023-04-25T11:19:21;91640.75;;;16.04;46.66
53041;BME280;39326;42.650;23.248;2023-04-25T11:21:47;91644.78;;;15.99;46.29
53041;BME280;39326;42.650;23.248;2023-04-25T11:24:12;91644.84;;;15.73;46.29
53041;BME280;39326;42.650;23.248;2023-04-25T11:26:38;91640.16;;;15.43;46.47
53041;BME280;39326;42.650;23.248;2023-04-25T11:29:06;91652.97;;;15.26;47.03
53041;BME280;39326;42.650;23.248;2023-04-25T11:31:31;91656.31;;;15.30;47.24
53041;BME280;39326;42.650;23.248;2023-04-25T11:33:57;91664.94;;;15.12;48.16
53041;BME280;39326;42.650;23.248;2023-04-25T11:36:26;91673.84;;;14.71;49.76
53041;BME280;39326;42.650;23.248;2023-04-25T11:38:53;91674.81;;;14.52;52.08
53041;BME280;39326;42.650;23.248;2023-04-25T11:41:19;91686.59;;;14.29;52.29
53041;BME280;39326;42.650;23.248;2023-04-25T11:43:45;91687.00;;;13.56;55.84
53041;BME280;39326;42.650;23.248;2023-04-25T11:46:11;91688.75;;;13.63;53.86
53041;BME280;39326;42.650;23.248;2023-04-25T11:48:40;91677.31;;;13.46;56.86
53041;BME280;39326;42.650;23.248;2023-04-25T11:51:06;91672.00;;;13.30;58.69
53041;BME280;39326;42.650;23.248;2023-04-25T11:53:31;91655.34;;;13.22;60.21
53041;BME280;39326;42.650;23.248;2023-04-25T11:55:57;91649.06;;;13.13;63.14
53041;BME280;39326;42.650;23.248;2023-04-25T11:58:22;91643.16;;;13.50;62.06
53041;BME280;39326;42.650;23.248;2023-04-25T12:00:48;91626.03;;;13.90;60.69
53041;BME280;39326;42.650;23.248;2023-04-25T12:03:13;91622.34;;;14.25;60.07
53041;BME280;39326;42.650;23.248;2023-04-25T12:05:39;91625.31;;;14.78;57.57
53041;BME280;39326;42.650;23.248;2023-04-25T12:08:15;91626.09;;;14.91;49.53
53041;BME280;39326;42.650;23.248;2023-04-25T12:10:43;91623.41;;;14.91;49.54
53041;BME280;39326;42.650;23.248;2023-04-25T12:13:19;91625.19;;;15.07;52.40
53041;BME280;39326;42.650;23.248;2023-04-25T12:15:45;91623.69;;;15.19;52.23
53041;BME280;39326;42.650;23.248;2023-04-25T12:18:11;91631.25;;;15.33;51.21
53041;BME280;39326;42.650;23.248;2023-04-25T12:20:36;91628.31;;;15.06;51.70
53041;BME280;39326;42.650;23.248;2023-04-25T12:23:05;91633.66;;;15.18;48.50
53041;BME280;39326;42.650;23.248;2023-04-25T12:25:41;91635.41;;;15.12;50.69
53041;BME280;39326;42.650;23.248;2023-04-25T12:28:22;91631.88;;;14.90;48.92
53041;BME280;39326;42.650;23.248;2023-04-25T12:33:25;91663.56;;;14.57;52.23
53041;BME280;39326;42.650;23.248;2023-04-25T12:35:52;91673.94;;;14.17;54.50
53041;BME280;39326;42.650;23.248;2023-04-25T12:38:28;91686.63;;;13.87;56.86
53041;BME280;39326;42.650;23.248;2023-04-25T12:40:55;91692.41;;;13.86;57.58
53041;BME280;39326;42.650;23.248;2023-04-25T12:43:21;91684.78;;;13.39;59.43
53041;BME280;39326;42.650;23.248;2023-04-25T12:45:51;91699.47;;;13.47;59.46
53041;BME280;39326;42.650;23.248;2023-04-25T12:48:18;91703.44;;;13.26;60.41
53041;BME280;39326;42.650;23.248;2023-04-25T12:50:43;91697.63;;;12.98;61.79
53041;BME280;39326;42.650;23.248;2023-04-25T12:53:10;91701.03;;;13.15;61.37
53041;BME280;39326;42.650;23.248;2023-04-25T12:55:37;91706.91;;;13.10;62.59
53041;BME280;39326;42.650;23.248;2023-04-25T12:58:03;91703.38;;;12.97;63.57
53041;BME280;39326;42.650;23.248;2023-04-25T13:00:29;91707.91;;;12.64;65.46
53041;BME280;39326;42.650;23.248;2023-04-25T13:02:55;91703.53;;;12.37;69.12